Time;durP1;ratioP1;P1;durP2;ratioP2;P2;SDS_P1;SDS_P2;PMS_P1;PMS_P2;Temp;Humidity;BMP_temperature;BMP_pressure;BME280_temperature;BME280_humidity;BME280_pressure;Samples;Min_cycle;Max_cycle;Signal;HPM_P1;HPM_P2
2022/03/27 00:00:13;;;;;;;;;;;20.00;36.10;;;;;;5059668;28;19924;-50
2022/03/27 00:02:40;;;;;;;;;;;20.00;36.10;;;;;;5088909;28;19928;-47
2022/03/27 00:05:08;;;;;;;;;;;20.10;36.20;;;;;;5058677;28;19927;-47
2022/03/27 00:07:34;;;;;;;;;;;20.00;36.10;;;;;;5058267;28;19966;-53
2022/03/27 00:10:03;;;;;;;;;;;20.00;36.10;;;;;;5059449;28;19921;-48
2022/03/27 00:12:32;;;;;;;;;;;20.00;36.10;;;;;;5064729;28;19931;-53
2022/03/27 00:15:01;;;;;;;;;;;20.00;36.10;;;;;;5072699;28;20019;-54
2022/03/27 00:17:29;;;;;;;;;;;20.00;36.10;;;;;;5060066;28;19924;-55
2022/03/27 00:19:56;;;;;;;;;;;20.00;36.00;;;;;;5062512;28;20023;-48
2022/03/27 00:22:24;;;;;;;;;;;20.00;36.00;;;;;;5062882;28;20196;-52
2022/03/27 00:24:51;;;;;;;;;;;20.00;36.00;;;;;;5087587;28;19928;-52
2022/03/27 00:27:17;;;;;;;;;;;20.00;36.00;;;;;;5087525;28;19967;-54
2022/03/27 00:29:45;;;;;;;;;;;20.00;36.00;;;;;;5062814;28;19928;-48
2022/03/27 00:32:12;;;;;;;;;;;20.00;36.00;;;;;;5062456;28;20320;-55
2022/03/27 00:34:39;;;;;;;;;;;20.00;36.00;;;;;;5057031;28;19970;-51
2022/03/27 00:37:08;;;;;;;;;;;19.90;35.90;;;;;;5057902;28;20365;-48
2022/03/27 00:39:34;;;;;;;;;;;20.00;36.00;;;;;;5058590;28;19932;-48
2022/03/27 00:42:01;;;;;;;;;;;19.90;35.80;;;;;;5059860;28;19954;-45
2022/03/27 00:44:28;;;;;;;;;;;19.90;35.80;;;;;;5061650;28;19920;-51
2022/03/27 00:46:56;;;;;;;;;;;19.90;35.80;;;;;;5057971;28;19921;-45
2022/03/27 00:49:23;;;;;;;;;;;19.90;35.80;;;;;;5057909;28;19921;-46
2022/03/27 00:51:49;;;;;;;;;;;19.90;35.80;;;;;;5063067;28;19924;-46
2022/03/27 00:54:16;;;;;;;;;;;19.90;35.80;;;;;;5065615;28;19925;-54
2022/03/27 00:56:42;;;;;;;;;;;19.90;35.80;;;;;;5063554;28;19927;-48
2022/03/27 00:59:12;;;;;;;;;;;19.90;35.70;;;;;;5062655;28;19931;-45
2022/03/27 01:01:39;;;;;;;;;;;19.90;35.70;;;;;;5057295;28;19920;-50
2022/03/27 01:04:07;;;;;;;;;;;19.90;35.70;;;;;;5062111;28;20039;-49
2022/03/27 01:06:35;;;;;;;;;;;19.90;35.70;;;;;;5063624;28;19920;-46
2022/03/27 01:11:47;;;;;;;;;;;19.90;35.80;;;;;;5085544;28;19971;-45
2022/03/27 01:14:14;;;;;;;;;;;19.90;35.80;;;;;;5059243;28;20285;-50
2022/03/27 01:16:42;;;;;;;;;;;19.80;35.70;;;;;;5073892;28;19960;-50
2022/03/27 01:19:10;;;;;;;;;;;19.80;35.70;;;;;;5063838;28;20313;-50
2022/03/27 01:21:40;;;;;;;;;;;19.80;35.70;;;;;;5063302;28;19920;-47
2022/03/27 01:24:07;;;;;;;;;;;19.80;35.70;;;;;;5073284;28;19956;-50
2022/03/27 01:26:34;;;;;;;;;;;19.80;35.70;;;;;;5061666;28;19924;-57
2022/03/27 01:29:01;;;;;;;;;;;19.80;35.80;;;;;;5060563;28;19929;-48
2022/03/27 01:31:27;;;;;;;;;;;19.80;35.70;;;;;;5060660;28;19939;-52
2022/03/27 01:33:54;;;;;;;;;;;19.80;35.70;;;;;;5065399;28;20289;-50
2022/03/27 01:36:22;;;;;;;;;;;19.80;35.70;;;;;;5067247;28;20016;-55
2022/03/27 01:38:50;;;;;;;;;;;19.80;35.70;;;;;;5066711;28;19921;-52
2022/03/27 01:41:17;;;;;;;;;;;19.80;35.70;;;;;;5067214;28;20251;-50
2022/03/27 01:43:44;;;;;;;;;;;19.80;35.70;;;;;;5067354;28;19940;-47
2022/03/27 01:46:13;;;;;;;;;;;19.80;35.60;;;;;;5059569;28;19928;-54
2022/03/27 01:48:40;;;;;;;;;;;19.80;35.70;;;;;;5063678;28;19965;-44
2022/03/27 01:51:07;;;;;;;;;;;19.80;35.60;;;;;;5066324;28;19935;-48
2022/03/27 01:53:34;;;;;;;;;;;19.80;35.60;;;;;;5061731;28;19962;-56
2022/03/27 01:56:02;;;;;;;;;;;19.80;35.60;;;;;;5065856;28;19935;-47
2022/03/27 01:58:30;;;;;;;;;;;19.70;35.60;;;;;;5067032;28;20297;-47
2022/03/27 02:00:57;;;;;;;;;;;19.80;35.60;;;;;;5064818;28;20358;-47
2022/03/27 02:03:27;;;;;;;;;;;19.70;35.50;;;;;;5061127;28;20204;-48
2022/03/27 02:05:54;;;;;;;;;;;19.70;35.60;;;;;;5059851;28;19967;-47
2022/03/27 02:08:23;;;;;;;;;;;19.70;35.60;;;;;;5075075;28;19942;-48
2022/03/27 02:10:49;;;;;;;;;;;19.70;35.80;;;;;;5063076;28;19931;-53
2022/03/27 02:13:19;;;;;;;;;;;19.70;35.50;;;;;;5074885;28;19935;-53
2022/03/27 02:15:46;;;;;;;;;;;19.70;35.50;;;;;;5069471;28;19931;-47
2022/03/27 02:18:13;;;;;;;;;;;19.70;35.50;;;;;;5064780;28;19929;-50
2022/03/27 02:20:40;;;;;;;;;;;19.70;35.50;;;;;;5062955;28;19920;-52
2022/03/27 02:23:06;;;;;;;;;;;19.70;35.50;;;;;;5060374;28;19931;-54
2022/03/27 02:25:33;;;;;;;;;;;19.70;35.50;;;;;;5071793;28;19974;-52
2022/03/27 02:28:00;;;;;;;;;;;19.70;35.40;;;;;;5059892;28;19920;-57
2022/03/27 02:30:28;;;;;;;;;;;19.70;35.50;;;;;;5063074;28;20527;-54
2022/03/27 02:32:58;;;;;;;;;;;19.70;35.40;;;;;;5065110;28;19993;-54
2022/03/27 02:35:25;;;;;;;;;;;19.70;35.40;;;;;;5092780;28;20365;-49
2022/03/27 02:37:54;;;;;;;;;;;19.60;35.30;;;;;;5062862;28;19921;-48
2022/03/27 02:40:23;;;;;;;;;;;19.60;35.30;;;;;;5080621;28;20293;-51
2022/03/27 02:42:50;;;;;;;;;;;19.70;35.30;;;;;;5065419;28;20011;-46
2022/03/27 02:45:17;;;;;;;;;;;19.70;35.30;;;;;;5061641;28;19932;-47
2022/03/27 02:47:45;;;;;;;;;;;19.60;35.30;;;;;;5060806;28;19978;-48
2022/03/27 02:50:12;;;;;;;;;;;19.60;35.30;;;;;;5073563;28;19960;-50
2022/03/27 02:52:39;;;;;;;;;;;19.60;35.20;;;;;;5058950;28;19932;-52
2022/03/27 02:55:24;;;;;;;;;;;19.60;35.20;;;;;;5081491;28;20304;-47
2022/03/27 02:57:51;;;;;;;;;;;19.60;35.20;;;;;;5081018;28;20255;-45
2022/03/27 03:00:19;;;;;;;;;;;19.60;35.20;;;;;;5080534;28;19924;-48
2022/03/27 03:02:46;;;;;;;;;;;19.60;35.10;;;;;;5079762;28;19920;-46
2022/03/27 03:05:13;;;;;;;;;;;19.60;35.10;;;;;;5076005;28;20005;-51
2022/03/27 03:07:42;;;;;;;;;;;19.60;35.10;;;;;;5079431;28;19926;-49
2022/03/27 03:10:09;;;;;;;;;;;19.50;35.00;;;;;;5104873;27;19928;-45
2022/03/27 03:12:37;;;;;;;;;;;19.50;35.60;;;;;;5079542;28;20011;-48
2022/03/27 03:15:04;;;;;;;;;;;19.50;35.00;;;;;;5074374;28;20038;-49
2022/03/27 03:17:31;;;;;;;;;;;19.50;35.00;;;;;;5078833;28;19930;-45
2022/03/27 03:19:58;;;;;;;;;;;19.60;35.10;;;;;;5078807;28;19963;-52
2022/03/27 03:22:25;;;;;;;;;;;19.50;35.00;;;;;;5101686;28;19934;-55
2022/03/27 03:24:53;;;;;;;;;;;19.50;35.00;;;;;;5104445;28;20130;-49
2022/03/27 03:27:20;;;;;;;;;;;19.50;34.90;;;;;;5076152;28;19921;-55
2022/03/27 03:29:48;;;;;;;;;;;19.50;35.00;;;;;;5074614;28;19963;-52
2022/03/27 03:32:15;;;;;;;;;;;19.50;34.90;;;;;;5104805;28;19924;-44
2022/03/27 03:34:42;;;;;;;;;;;19.50;34.90;;;;;;5079608;28;20001;-55
2022/03/27 03:37:11;;;;;;;;;;;19.50;34.90;;;;;;5079030;28;19970;-56
2022/03/27 03:39:38;;;;;;;;;;;19.50;34.90;;;;;;5082558;28;20023;-48
2022/03/27 03:42:06;;;;;;;;;;;19.50;34.90;;;;;;5078334;28;19924;-44
2022/03/27 03:44:33;;;;;;;;;;;19.50;34.90;;;;;;5081043;28;19920;-52
2022/03/27 03:47:01;;;;;;;;;;;19.50;34.90;;;;;;5076150;28;19924;-46
2022/03/27 03:49:27;;;;;;;;;;;19.50;34.90;;;;;;5079021;28;20264;-48
2022/03/27 03:51:57;;;;;;;;;;;19.50;34.90;;;;;;5081972;28;20485;-44
2022/03/27 03:54:26;;;;;;;;;;;19.50;34.80;;;;;;5072913;28;19931;-44
2022/03/27 03:56:53;;;;;;;;;;;19.50;34.80;;;;;;5078678;28;20358;-45
2022/03/27 03:59:19;;;;;;;;;;;19.50;34.80;;;;;;5073882;28;19975;-44
2022/03/27 04:01:46;;;;;;;;;;;19.50;34.80;;;;;;5076949;28;20028;-50
2022/03/27 04:04:14;;;;;;;;;;;19.50;34.80;;;;;;5078302;28;19925;-49
2022/03/27 04:06:41;;;;;;;;;;;19.50;34.80;;;;;;5065972;28;20278;-46
2022/03/27 04:09:08;;;;;;;;;;;19.50;34.80;;;;;;5062569;28;20031;-44
2022/03/27 04:11:36;;;;;;;;;;;19.50;34.80;;;;;;5062560;28;19960;-47
2022/03/27 04:14:03;;;;;;;;;;;19.50;34.80;;;;;;5063767;28;20274;-45
2022/03/27 04:16:30;;;;;;;;;;;19.50;34.80;;;;;;5088115;28;20015;-49
2022/03/27 04:18:57;;;;;;;;;;;19.50;34.80;;;;;;5065989;28;19956;-51
2022/03/27 04:21:26;;;;;;;;;;;19.50;34.80;;;;;;5063671;28;19986;-46
2022/03/27 04:23:53;;;;;;;;;;;19.50;34.70;;;;;;5090246;28;19924;-51
2022/03/27 04:26:20;;;;;;;;;;;19.50;34.70;;;;;;5091419;28;19995;-49
2022/03/27 04:28:47;;;;;;;;;;;19.50;34.70;;;;;;5066307;28;20273;-45
2022/03/27 04:31:14;;;;;;;;;;;19.40;34.50;;;;;;5066323;28;19924;-44
2022/03/27 04:33:41;;;;;;;;;;;19.40;34.50;;;;;;5062428;28;19925;-53
2022/03/27 04:36:08;;;;;;;;;;;19.40;34.50;;;;;;5066476;28;19920;-46
2022/03/27 04:38:36;;;;;;;;;;;19.40;34.50;;;;;;5065174;28;19958;-45
2022/03/27 04:41:06;;;;;;;;;;;19.40;34.50;;;;;;5060734;28;19955;-55
2022/03/27 04:43:33;;;;;;;;;;;19.40;34.50;;;;;;5062435;28;19926;-47
2022/03/27 04:46:00;;;;;;;;;;;19.40;34.50;;;;;;5063602;28;19920;-49
2022/03/27 04:48:26;;;;;;;;;;;19.40;34.40;;;;;;5088725;28;20008;-51
2022/03/27 04:50:53;;;;;;;;;;;19.40;34.40;;;;;;5064226;28;20321;-50
2022/03/27 04:53:20;;;;;;;;;;;19.30;34.30;;;;;;5062644;28;19920;-56
2022/03/27 04:55:49;;;;;;;;;;;19.30;34.30;;;;;;5066237;28;19929;-47
2022/03/27 04:58:18;;;;;;;;;;;19.40;34.30;;;;;;5066189;28;19960;-45
2022/03/27 05:00:45;;;;;;;;;;;19.30;34.20;;;;;;5062664;28;20431;-44
2022/03/27 05:03:13;;;;;;;;;;;19.30;34.80;;;;;;5088194;28;19967;-48
2022/03/27 05:05:40;;;;;;;;;;;19.30;34.20;;;;;;5067266;28;19920;-48
2022/03/27 05:08:07;;;;;;;;;;;19.30;34.20;;;;;;5065467;28;19955;-47
2022/03/27 05:10:34;;;;;;;;;;;19.30;34.20;;;;;;5086600;28;19968;-59
2022/03/27 05:13:02;;;;;;;;;;;19.30;34.20;;;;;;5059632;28;19924;-47
2022/03/27 05:15:29;;;;;;;;;;;19.30;34.20;;;;;;5062180;28;19928;-48
2022/03/27 05:17:58;;;;;;;;;;;19.30;34.30;;;;;;5064395;28;20495;-48
2022/03/27 05:20:24;;;;;;;;;;;19.30;34.20;;;;;;5091308;28;19932;-52
2022/03/27 05:22:51;;;;;;;;;;;19.30;34.30;;;;;;5059089;28;19944;-48
2022/03/27 05:25:18;;;;;;;;;;;19.30;34.50;;;;;;5062042;28;19939;-51
2022/03/27 05:27:45;;;;;;;;;;;19.30;34.50;;;;;;5063572;28;20258;-54
2022/03/27 05:30:15;;;;;;;;;;;19.30;34.50;;;;;;5066251;28;20210;-47
2022/03/27 05:32:42;;;;;;;;;;;19.30;34.80;;;;;;5060608;28;19924;-50
2022/03/27 05:35:09;;;;;;;;;;;19.40;34.80;;;;;;5063067;28;19920;-52
2022/03/27 05:37:37;;;;;;;;;;;19.20;34.80;;;;;;5059872;28;19932;-48
2022/03/27 05:40:04;;;;;;;;;;;19.30;34.90;;;;;;5062439;28;19939;-53
2022/03/27 05:42:30;;;;;;;;;;;19.20;35.00;;;;;;5065496;28;20389;-55
2022/03/27 05:44:59;;;;;;;;;;;19.20;34.90;;;;;;5063529;28;19974;-46
2022/03/27 05:47:27;;;;;;;;;;;19.40;34.80;;;;;;5055493;28;19924;-56
2022/03/27 05:49:54;;;;;;;;;;;19.20;34.70;;;;;;5065431;28;19920;-47
2022/03/27 05:52:22;;;;;;;;;;;19.30;34.60;;;;;;5058740;28;20017;-52
2022/03/27 05:54:49;;;;;;;;;;;19.30;35.10;;;;;;5067085;28;19970;-48
2022/03/27 05:57:17;;;;;;;;;;;19.20;35.40;;;;;;5063503;28;19924;-50
2022/03/27 05:59:44;;;;;;;;;;;19.10;36.10;;;;;;5060112;28;19934;-54
2022/03/27 06:02:12;;;;;;;;;;;19.10;47.40;;;;;;5059585;28;20048;-47
2022/03/27 06:04:40;;;;;;;;;;;19.40;47.20;;;;;;5065428;28;19974;-46
2022/03/27 06:07:07;;;;;;;;;;;19.10;42.90;;;;;;5078402;28;19928;-47
2022/03/27 06:09:34;;;;;;;;;;;19.30;41.80;;;;;;5061833;28;20023;-48
2022/03/27 06:12:01;;;;;;;;;;;19.20;41.20;;;;;;5084892;28;19935;-56
2022/03/27 06:14:30;;;;;;;;;;;19.30;41.30;;;;;;5061666;28;19924;-45
2022/03/27 06:16:57;;;;;;;;;;;19.10;40.60;;;;;;5062537;28;19959;-48
2022/03/27 06:19:23;;;;;;;;;;;19.20;40.20;;;;;;5062605;28;19959;-44
2022/03/27 06:21:52;;;;;;;;;;;19.30;39.90;;;;;;5061581;28;19959;-49
2022/03/27 06:24:19;;;;;;;;;;;19.20;40.00;;;;;;5061315;28;20428;-57
2022/03/27 06:26:46;;;;;;;;;;;19.20;39.70;;;;;;5061775;28;19924;-50
2022/03/27 06:29:14;;;;;;;;;;;19.10;39.40;;;;;;5061821;28;19920;-50
2022/03/27 06:31:41;;;;;;;;;;;19.10;39.30;;;;;;5062403;28;20015;-49
2022/03/27 06:34:08;;;;;;;;;;;19.30;39.50;;;;;;5063122;28;19924;-49
2022/03/27 06:36:35;;;;;;;;;;;19.10;39.40;;;;;;5059648;28;20353;-52
2022/03/27 06:39:03;;;;;;;;;;;19.30;39.20;;;;;;5064649;28;20254;-52
2022/03/27 06:41:30;;;;;;;;;;;19.30;39.30;;;;;;5061379;28;20399;-47
2022/03/27 06:43:57;;;;;;;;;;;19.10;39.00;;;;;;5064923;28;19955;-48
2022/03/27 06:46:24;;;;;;;;;;;19.10;39.00;;;;;;5061163;28;19928;-49
2022/03/27 06:48:54;;;;;;;;;;;19.10;39.20;;;;;;5062933;28;19939;-50
2022/03/27 06:51:21;;;;;;;;;;;19.10;39.30;;;;;;5062549;28;20366;-47
2022/03/27 06:53:48;;;;;;;;;;;19.30;39.70;;;;;;5063328;28;20340;-57
2022/03/27 06:56:16;;;;;;;;;;;19.10;39.50;;;;;;5056478;28;19935;-48
2022/03/27 06:58:42;;;;;;;;;;;19.20;39.20;;;;;;5062107;28;20385;-52
2022/03/27 07:03:55;;;;;;;;;;;19.00;39.20;;;;;;5086172;28;20301;-48
2022/03/27 07:06:23;;;;;;;;;;;19.30;39.60;;;;;;5062372;28;19921;-50
2022/03/27 07:08:50;;;;;;;;;;;19.10;39.40;;;;;;5061617;28;20083;-56
2022/03/27 07:11:19;;;;;;;;;;;19.20;39.60;;;;;;5060637;28;20272;-49
2022/03/27 07:13:46;;;;;;;;;;;19.30;39.60;;;;;;5059829;28;19935;-48
2022/03/27 07:16:14;;;;;;;;;;;19.00;39.30;;;;;;5058850;28;19974;-48
2022/03/27 07:18:42;;;;;;;;;;;19.10;39.60;;;;;;5062344;28;20602;-47
2022/03/27 07:21:09;;;;;;;;;;;19.20;39.70;;;;;;5063173;28;19928;-48
2022/03/27 07:23:36;;;;;;;;;;;19.30;39.60;;;;;;5055879;28;19924;-57
2022/03/27 07:26:03;;;;;;;;;;;19.10;39.90;;;;;;5062370;28;19928;-45
2022/03/27 07:28:31;;;;;;;;;;;19.30;40.10;;;;;;5062778;28;19924;-53
2022/03/27 07:30:59;;;;;;;;;;;19.00;39.50;;;;;;5063359;28;20258;-47
2022/03/27 07:33:27;;;;;;;;;;;19.00;39.70;;;;;;5056119;28;19927;-51
2022/03/27 07:35:54;;;;;;;;;;;19.10;40.10;;;;;;5055935;28;20181;-46
2022/03/27 07:38:21;;;;;;;;;;;19.00;39.90;;;;;;5062285;28;19920;-51
2022/03/27 07:40:48;;;;;;;;;;;19.00;40.00;;;;;;5059754;28;20007;-49
2022/03/27 07:43:15;;;;;;;;;;;19.00;39.90;;;;;;5064502;28;20405;-56
2022/03/27 07:45:43;;;;;;;;;;;18.90;40.30;;;;;;5087586;28;19920;-47
2022/03/27 07:48:09;;;;;;;;;;;18.90;40.40;;;;;;5065607;28;19921;-55
2022/03/27 07:50:37;;;;;;;;;;;19.10;40.80;;;;;;5062235;28;19921;-45
2022/03/27 07:53:04;;;;;;;;;;;19.00;40.60;;;;;;5088456;28;19927;-46
2022/03/27 07:55:44;;;;;;;;;;;19.10;40.80;;;;;;5049563;28;19920;-52
2022/03/27 07:58:11;;;;;;;;;;;19.00;40.60;;;;;;5052646;28;19927;-50
2022/03/27 08:00:38;;;;;;;;;;;19.10;40.90;;;;;;5059987;28;19978;-46
2022/03/27 08:03:08;;;;;;;;;;;19.00;41.00;;;;;;5055252;28;19948;-48
2022/03/27 08:05:35;;;;;;;;;;;18.90;40.90;;;;;;5052144;28;19920;-58
2022/03/27 08:08:02;;;;;;;;;;;19.00;34.60;;;;;;5061574;28;19927;-53
2022/03/27 08:10:29;;;;;;;;;;;19.00;35.10;;;;;;5055156;28;20071;-44
2022/03/27 08:12:56;;;;;;;;;;;19.00;35.20;;;;;;5052859;28;19927;-44
2022/03/27 08:15:22;;;;;;;;;;;19.00;35.30;;;;;;5067900;28;19921;-49
2022/03/27 08:17:53;;;;;;;;;;;19.00;35.40;;;;;;5067505;28;19921;-44
2022/03/27 08:20:22;;;;;;;;;;;19.00;35.40;;;;;;5067504;28;19920;-45
2022/03/27 08:22:48;;;;;;;;;;;19.00;35.50;;;;;;5100668;28;19929;-56
2022/03/27 08:26:55;;;;;;;;;;;18.90;35.60;;;;;;5064856;28;19925;-45
2022/03/27 08:28:01;;;;;;;;;;;18.90;35.50;;;;;;5088855;28;19920;-47
2022/03/27 08:30:27;;;;;;;;;;;18.90;35.50;;;;;;5101008;28;19925;-54
2022/03/27 08:32:54;;;;;;;;;;;18.90;35.50;;;;;;5062681;28;19931;-46
2022/03/27 08:35:22;;;;;;;;;;;18.90;35.70;;;;;;5091281;27;19939;-45
2022/03/27 08:37:52;;;;;;;;;;;18.90;35.80;;;;;;5065002;28;20277;-45
2022/03/27 08:40:20;;;;;;;;;;;18.90;36.00;;;;;;5063914;28;19950;-45
2022/03/27 08:42:47;;;;;;;;;;;18.90;36.20;;;;;;5065980;28;19921;-46
2022/03/27 08:45:15;;;;;;;;;;;18.90;36.20;;;;;;5092604;27;20321;-45
2022/03/27 08:47:42;;;;;;;;;;;18.90;36.30;;;;;;5062509;28;19931;-47
2022/03/27 08:50:13;;;;;;;;;;;18.90;36.40;;;;;;5062631;28;20027;-47
2022/03/27 08:52:46;;;;;;;;;;;18.90;36.40;;;;;;5054620;28;19925;-46
2022/03/27 08:55:13;;;;;;;;;;;18.90;36.50;;;;;;5086150;28;19973;-52
2022/03/27 08:57:52;;;;;;;;;;;18.90;36.60;;;;;;5095860;28;19964;-52
2022/03/27 09:00:20;;;;;;;;;;;18.90;36.70;;;;;;5057192;28;19925;-55
2022/03/27 09:02:47;;;;;;;;;;;18.90;36.70;;;;;;5094411;28;20334;-44
2022/03/27 09:05:13;;;;;;;;;;;18.90;36.60;;;;;;5063360;28;19978;-49
2022/03/27 09:07:41;;;;;;;;;;;18.80;36.60;;;;;;5061876;28;19960;-51
2022/03/27 09:10:08;;;;;;;;;;;18.80;36.70;;;;;;5052759;28;19921;-46
2022/03/27 09:12:46;;;;;;;;;;;18.80;36.70;;;;;;5060452;28;19967;-46
2022/03/27 09:15:13;;;;;;;;;;;18.80;36.70;;;;;;5064169;28;20277;-55
2022/03/27 09:17:59;;;;;;;;;;;18.80;36.80;;;;;;5097109;28;19920;-44
2022/03/27 09:20:33;;;;;;;;;;;18.80;36.80;;;;;;5081166;28;20005;-49
2022/03/27 09:23:07;;;;;;;;;;;18.80;36.90;;;;;;5051495;28;19927;-45
2022/03/27 09:25:43;;;;;;;;;;;18.80;37.10;;;;;;5055164;28;19943;-45
2022/03/27 09:28:10;;;;;;;;;;;18.80;37.00;;;;;;5060146;28;19966;-46
2022/03/27 09:30:37;;;;;;;;;;;18.80;37.00;;;;;;5076619;28;19986;-44
2022/03/27 09:33:04;;;;;;;;;;;18.80;37.10;;;;;;5066333;28;19986;-44
2022/03/27 09:35:33;;;;;;;;;;;18.80;37.10;;;;;;5060575;28;19920;-44
2022/03/27 09:38:00;;;;;;;;;;;18.80;37.00;;;;;;5102506;28;19978;-45
2022/03/27 09:40:36;;;;;;;;;;;18.80;37.00;;;;;;5073509;28;19920;-45
2022/03/27 09:43:10;;;;;;;;;;;18.80;37.10;;;;;;5073623;28;19920;-45
2022/03/27 09:45:37;;;;;;;;;;;18.70;37.10;;;;;;5075861;28;19927;-47
2022/03/27 09:48:07;;;;;;;;;;;18.70;37.10;;;;;;5076609;28;19928;-45
2022/03/27 09:50:34;;;;;;;;;;;18.70;37.10;;;;;;5074063;28;19920;-46
2022/03/27 09:53:21;;;;;;;;;;;18.70;37.10;;;;;;5073166;28;19948;-45
2022/03/27 09:55:49;;;;;;;;;;;18.70;37.00;;;;;;5059229;28;19933;-45
2022/03/27 09:58:16;;;;;;;;;;;18.70;37.00;;;;;;5062794;28;19924;-46
2022/03/27 10:00:43;;;;;;;;;;;18.80;37.00;;;;;;5067089;28;20254;-57
2022/03/27 10:03:10;;;;;;;;;;;18.80;36.90;;;;;;5064819;28;19920;-47
2022/03/27 10:05:37;;;;;;;;;;;18.80;36.80;;;;;;5072049;28;19970;-46
2022/03/27 10:08:04;;;;;;;;;;;18.90;36.70;;;;;;5073211;28;19993;-45
2022/03/27 10:10:31;;;;;;;;;;;18.90;37.20;;;;;;5074524;28;19921;-46
2022/03/27 10:12:59;;;;;;;;;;;19.00;36.70;;;;;;5073153;28;19920;-46
2022/03/27 10:15:26;;;;;;;;;;;19.00;36.90;;;;;;5071057;28;20223;-46
2022/03/27 10:17:54;;;;;;;;;;;19.00;36.70;;;;;;5068611;28;19925;-50
2022/03/27 10:20:21;;;;;;;;;;;19.00;36.80;;;;;;5068640;28;20007;-47
2022/03/27 10:22:48;;;;;;;;;;;19.10;36.90;;;;;;5064476;28;19927;-46
2022/03/27 10:25:15;;;;;;;;;;;19.10;36.90;;;;;;5062918;28;19925;-51
2022/03/27 10:27:43;;;;;;;;;;;19.10;36.90;;;;;;5069876;28;19928;-49
2022/03/27 10:30:12;;;;;;;;;;;19.10;37.00;;;;;;5073312;28;19925;-48
2022/03/27 10:32:39;;;;;;;;;;;19.10;36.90;;;;;;5070967;28;20247;-47
2022/03/27 10:35:20;;;;;;;;;;;19.10;36.80;;;;;;5072638;28;19920;-46
2022/03/27 10:37:49;;;;;;;;;;;19.10;37.00;;;;;;5071516;28;20291;-48
2022/03/27 10:40:17;;;;;;;;;;;19.10;37.00;;;;;;5072358;28;19920;-51
2022/03/27 10:42:47;;;;;;;;;;;19.20;37.20;;;;;;5047893;28;19967;-50
2022/03/27 10:45:17;;;;;;;;;;;19.20;37.20;;;;;;5091662;28;20353;-49
2022/03/27 10:47:44;;;;;;;;;;;19.20;37.40;;;;;;5050557;28;20362;-50
2022/03/27 10:50:21;;;;;;;;;;;19.20;37.50;;;;;;5086658;28;19924;-46
2022/03/27 10:53:07;;;;;;;;;;;19.10;37.50;;;;;;5051178;28;19920;-46
2022/03/27 10:55:38;;;;;;;;;;;19.10;37.60;;;;;;5052314;28;20019;-46
2022/03/27 10:58:19;;;;;;;;;;;19.10;37.70;;;;;;5086191;28;19942;-45
2022/03/27 11:00:48;;;;;;;;;;;19.10;37.70;;;;;;5050769;28;20015;-48
2022/03/27 11:03:20;;;;;;;;;;;19.10;37.80;;;;;;5061498;28;20247;-45
2022/03/27 11:05:59;;;;;;;;;;;19.10;37.90;;;;;;5065027;28;19920;-47
2022/03/27 11:08:44;;;;;;;;;;;19.00;37.80;;;;;;5068162;28;20030;-45
2022/03/27 11:11:11;;;;;;;;;;;19.00;37.80;;;;;;5064374;28;19925;-45
2022/03/27 11:13:39;;;;;;;;;;;19.00;37.90;;;;;;5052365;28;19971;-45
2022/03/27 11:16:07;;;;;;;;;;;19.00;37.90;;;;;;5055179;28;19970;-48
2022/03/27 11:18:34;;;;;;;;;;;19.00;37.90;;;;;;5055643;28;19978;-48
2022/03/27 11:21:01;;;;;;;;;;;19.00;38.00;;;;;;5056762;28;19954;-50
2022/03/27 11:23:28;;;;;;;;;;;19.00;38.00;;;;;;5056139;28;20309;-50
2022/03/27 11:25:56;;;;;;;;;;;19.00;38.10;;;;;;5083879;28;19921;-48
2022/03/27 11:28:22;;;;;;;;;;;19.00;38.10;;;;;;5053540;28;19927;-46
2022/03/27 11:31:08;;;;;;;;;;;19.00;38.20;;;;;;5059210;28;19965;-48
2022/03/27 11:33:37;;;;;;;;;;;19.00;38.20;;;;;;5058569;28;19920;-46
2022/03/27 11:36:23;;;;;;;;;;;19.00;38.30;;;;;;5088066;28;20019;-47
2022/03/27 11:38:54;;;;;;;;;;;19.00;38.40;;;;;;5090042;28;20358;-46
2022/03/27 11:41:25;;;;;;;;;;;19.00;38.30;;;;;;5089883;28;19921;-48
2022/03/27 11:43:52;;;;;;;;;;;19.00;38.20;;;;;;5088017;28;19921;-47
2022/03/27 11:46:20;;;;;;;;;;;19.00;38.30;;;;;;5057164;28;19920;-48
2022/03/27 11:48:54;;;;;;;;;;;19.00;38.30;;;;;;5050983;28;19921;-45
2022/03/27 11:51:20;;;;;;;;;;;19.00;38.20;;;;;;5071203;28;19974;-48
2022/03/27 11:53:47;;;;;;;;;;;19.00;38.30;;;;;;5058413;28;19964;-61
2022/03/27 11:56:14;;;;;;;;;;;19.00;38.20;;;;;;5071953;28;19921;-46
2022/03/27 11:58:42;;;;;;;;;;;19.00;38.10;;;;;;5073932;28;19925;-47
2022/03/27 12:01:10;;;;;;;;;;;19.00;38.20;;;;;;5075591;28;19966;-48
2022/03/27 12:03:37;;;;;;;;;;;19.00;38.30;;;;;;5074419;28;19920;-56
2022/03/27 12:06:06;;;;;;;;;;;19.00;38.30;;;;;;5075280;28;19924;-46
2022/03/27 12:08:33;;;;;;;;;;;19.00;38.30;;;;;;5075705;28;20296;-45
2022/03/27 12:11:04;;;;;;;;;;;19.10;38.40;;;;;;5072095;28;19973;-45
2022/03/27 12:13:35;;;;;;;;;;;19.10;38.30;;;;;;5055804;28;20320;-45
2022/03/27 12:16:03;;;;;;;;;;;19.10;38.50;;;;;;5052420;28;20055;-47
2022/03/27 12:18:30;;;;;;;;;;;19.10;38.30;;;;;;5073339;28;19921;-46
2022/03/27 12:20:56;;;;;;;;;;;19.10;38.40;;;;;;5073459;28;19924;-46
2022/03/27 12:23:25;;;;;;;;;;;19.10;38.50;;;;;;5074886;28;19927;-46
2022/03/27 12:26:02;;;;;;;;;;;19.10;38.60;;;;;;5074605;28;19943;-49
2022/03/27 12:31:23;;;;;;;;;;;19.10;38.40;;;;;;5108709;28;20385;-47
2022/03/27 12:33:51;;;;;;;;;;;19.10;38.20;;;;;;5060257;28;19920;-45
2022/03/27 12:36:19;;;;;;;;;;;19.10;38.20;;;;;;5069794;28;20322;-46
2022/03/27 12:38:48;;;;;;;;;;;19.10;38.10;;;;;;5067555;28;20030;-46
2022/03/27 12:41:14;;;;;;;;;;;19.20;38.10;;;;;;5072885;28;19920;-46
2022/03/27 12:43:55;;;;;;;;;;;19.20;38.20;;;;;;5075027;28;20088;-47
2022/03/27 12:46:25;;;;;;;;;;;19.20;38.40;;;;;;5059078;28;19927;-50
2022/03/27 12:48:58;;;;;;;;;;;19.10;38.30;;;;;;5054341;28;20440;-47
2022/03/27 12:51:25;;;;;;;;;;;19.20;38.60;;;;;;5059111;28;19987;-45
2022/03/27 12:54:02;;;;;;;;;;;19.20;38.70;;;;;;5070704;28;20269;-46
2022/03/27 12:56:29;;;;;;;;;;;19.10;38.70;;;;;;5061447;28;19921;-45
2022/03/27 12:58:56;;;;;;;;;;;19.20;38.60;;;;;;5064665;28;20007;-45
2022/03/27 13:01:23;;;;;;;;;;;19.10;38.50;;;;;;5086012;28;20012;-45
2022/03/27 13:04:00;;;;;;;;;;;19.20;38.70;;;;;;5055426;28;19995;-45
2022/03/27 13:06:31;;;;;;;;;;;19.20;38.70;;;;;;5094727;28;19921;-46
2022/03/27 13:08:59;;;;;;;;;;;19.20;38.90;;;;;;5079728;28;19943;-46
2022/03/27 13:11:27;;;;;;;;;;;19.20;38.70;;;;;;5084442;28;19925;-45
2022/03/27 13:13:58;;;;;;;;;;;19.20;38.60;;;;;;5080156;28;19946;-45
2022/03/27 13:16:25;;;;;;;;;;;19.20;38.50;;;;;;5073209;28;19921;-42
2022/03/27 13:19:00;;;;;;;;;;;19.20;38.30;;;;;;5087231;28;19991;-43
2022/03/27 13:21:27;;;;;;;;;;;19.20;38.20;;;;;;5091564;28;19956;-43
2022/03/27 13:23:54;;;;;;;;;;;19.20;38.10;;;;;;5077831;28;19955;-49
2022/03/27 13:26:21;;;;;;;;;;;19.30;38.10;;;;;;5082290;28;20027;-45
2022/03/27 13:28:49;;;;;;;;;;;19.30;38.10;;;;;;5080369;28;20289;-43
2022/03/27 13:31:16;;;;;;;;;;;19.30;38.10;;;;;;5081790;28;19928;-45
2022/03/27 13:33:43;;;;;;;;;;;19.40;38.20;;;;;;5080688;28;20362;-44
2022/03/27 13:36:10;;;;;;;;;;;19.40;38.20;;;;;;5083232;28;20023;-43
2022/03/27 13:38:37;;;;;;;;;;;19.40;38.20;;;;;;5100980;28;19964;-43
2022/03/27 13:43:49;;;;;;;;;;;19.50;38.30;;;;;;5066301;28;19958;-46
2022/03/27 13:46:16;;;;;;;;;;;19.50;38.30;;;;;;5081705;28;19943;-43
2022/03/27 13:48:43;;;;;;;;;;;19.50;38.30;;;;;;5080967;28;19927;-43
2022/03/27 13:51:10;;;;;;;;;;;19.50;38.30;;;;;;5080886;28;19965;-45
2022/03/27 13:53:36;;;;;;;;;;;19.50;38.30;;;;;;5063741;28;20262;-46
2022/03/27 13:56:03;;;;;;;;;;;19.60;38.30;;;;;;5059490;28;19920;-46
2022/03/27 13:58:31;;;;;;;;;;;19.60;38.40;;;;;;5087405;28;19920;-45
2022/03/27 14:01:01;;;;;;;;;;;19.60;38.30;;;;;;5088159;28;19921;-43
2022/03/27 14:03:29;;;;;;;;;;;19.60;38.30;;;;;;5111137;28;20011;-44
2022/03/27 14:05:57;;;;;;;;;;;19.60;38.30;;;;;;5073776;28;19996;-42
2022/03/27 14:08:24;;;;;;;;;;;19.60;38.90;;;;;;5062167;28;19987;-43
2022/03/27 14:10:51;;;;;;;;;;;19.60;38.30;;;;;;5077769;28;19925;-42
2022/03/27 14:13:18;;;;;;;;;;;19.60;38.30;;;;;;5060613;28;19921;-42
2022/03/27 14:15:46;;;;;;;;;;;19.60;38.30;;;;;;5076951;28;19920;-45
2022/03/27 14:18:17;;;;;;;;;;;19.70;38.30;;;;;;5096066;28;20255;-42
2022/03/27 14:20:43;;;;;;;;;;;19.70;38.30;;;;;;5075972;28;19931;-42
2022/03/27 14:23:10;;;;;;;;;;;19.70;38.30;;;;;;5056245;28;20016;-43
2022/03/27 14:25:37;;;;;;;;;;;19.70;38.30;;;;;;5063185;28;20342;-44
2022/03/27 14:28:04;;;;;;;;;;;19.70;38.30;;;;;;5078160;28;19921;-43
2022/03/27 14:30:31;;;;;;;;;;;19.70;38.30;;;;;;5079638;28;19943;-43
2022/03/27 14:32:58;;;;;;;;;;;19.70;38.30;;;;;;5077693;28;19942;-46